sensor_id;sensor_type;location;lat;lon;timestamp;P1;durP1;ratioP1;P2;durP2;ratioP2
37409;SDS011;23275;48.914;12.566;2024-03-06T00:01:29;15.57;;;7.80;;
37409;SDS011;23275;48.914;12.566;2024-03-06T00:03:55;17.30;;;8.75;;
37409;SDS011;23275;48.914;12.566;2024-03-06T00:06:20;15.50;;;8.68;;
37409;SDS011;23275;48.914;12.566;2024-03-06T00:08:46;23.63;;;10.68;;
37409;SDS011;23275;48.914;12.566;2024-03-06T00:11:11;20.92;;;9.75;;
37409;SDS011;23275;48.914;12.566;2024-03-06T00:13:37;22.27;;;9.43;;
37409;SDS011;23275;48.914;12.566;2024-03-06T00:16:02;18.90;;;9.80;;
37409;SDS011;23275;48.914;12.566;2024-03-06T00:18:29;16.60;;;8.90;;
37409;SDS011;23275;48.914;12.566;2024-03-06T00:20:54;16.95;;;9.30;;
37409;SDS011;23275;48.914;12.566;2024-03-06T00:23:20;18.25;;;9.45;;
37409;SDS011;23275;48.914;12.566;2024-03-06T00:25:45;17.55;;;8.60;;
37409;SDS011;23275;48.914;12.566;2024-03-06T00:28:11;14.93;;;8.70;;
37409;SDS011;23275;48.914;12.566;2024-03-06T00:30:37;19.98;;;10.45;;
37409;SDS011;23275;48.914;12.566;2024-03-06T00:33:02;17.02;;;8.52;;
37409;SDS011;23275;48.914;12.566;2024-03-06T00:35:28;16.55;;;8.38;;
37409;SDS011;23275;48.914;12.566;2024-03-06T00:37:54;16.40;;;8.07;;
37409;SDS011;23275;48.914;12.566;2024-03-06T00:40:19;17.35;;;7.50;;
37409;SDS011;23275;48.914;12.566;2024-03-06T00:42:45;12.70;;;6.63;;
37409;SDS011;23275;48.914;12.566;2024-03-06T00:45:11;15.60;;;8.35;;
37409;SDS011;23275;48.914;12.566;2024-03-06T00:47:36;15.20;;;8.38;;
37409;SDS011;23275;48.914;12.566;2024-03-06T00:50:02;14.00;;;7.85;;
37409;SDS011;23275;48.914;12.566;2024-03-06T00:52:30;16.48;;;9.43;;
37409;SDS011;23275;48.914;12.566;2024-03-06T00:54:55;15.63;;;8.45;;
37409;SDS011;23275;48.914;12.566;2024-03-06T00:57:21;15.95;;;8.50;;
37409;SDS011;23275;48.914;12.566;2024-03-06T00:59:46;16.58;;;8.07;;
37409;SDS011;23275;48.914;12.566;2024-03-06T01:02:12;14.32;;;7.53;;
37409;SDS011;23275;48.914;12.566;2024-03-06T01:04:38;15.82;;;8.32;;
37409;SDS011;23275;48.914;12.566;2024-03-06T01:07:03;17.08;;;8.65;;
37409;SDS011;23275;48.914;12.566;2024-03-06T01:09:29;14.75;;;7.63;;
37409;SDS011;23275;48.914;12.566;2024-03-06T01:11:54;15.90;;;8.52;;
37409;SDS011;23275;48.914;12.566;2024-03-06T01:14:20;16.35;;;8.27;;
37409;SDS011;23275;48.914;12.566;2024-03-06T01:16:46;15.50;;;7.72;;
37409;SDS011;23275;48.914;12.566;2024-03-06T01:19:11;14.32;;;7.68;;
37409;SDS011;23275;48.914;12.566;2024-03-06T01:21:38;15.23;;;7.88;;
37409;SDS011;23275;48.914;12.566;2024-03-06T01:24:03;12.70;;;6.88;;
37409;SDS011;23275;48.914;12.566;2024-03-06T01:26:29;12.23;;;6.97;;
37409;SDS011;23275;48.914;12.566;2024-03-06T01:28:55;12.85;;;7.40;;
37409;SDS011;23275;48.914;12.566;2024-03-06T01:31:20;14.82;;;7.50;;
37409;SDS011;23275;48.914;12.566;2024-03-06T01:33:46;16.02;;;8.13;;
37409;SDS011;23275;48.914;12.566;2024-03-06T01:36:11;13.70;;;7.57;;
37409;SDS011;23275;48.914;12.566;2024-03-06T01:38:38;15.00;;;7.75;;
37409;SDS011;23275;48.914;12.566;2024-03-06T01:41:03;15.05;;;8.18;;
37409;SDS011;23275;48.914;12.566;2024-03-06T01:43:36;14.20;;;8.20;;
37409;SDS011;23275;48.914;12.566;2024-03-06T01:46:03;15.75;;;8.23;;
37409;SDS011;23275;48.914;12.566;2024-03-06T01:48:29;15.57;;;8.10;;
37409;SDS011;23275;48.914;12.566;2024-03-06T01:50:56;16.58;;;7.90;;
37409;SDS011;23275;48.914;12.566;2024-03-06T01:53:24;15.98;;;9.00;;
37409;SDS011;23275;48.914;12.566;2024-03-06T01:55:53;15.35;;;7.65;;
37409;SDS011;23275;48.914;12.566;2024-03-06T01:58:19;14.32;;;7.70;;
37409;SDS011;23275;48.914;12.566;2024-03-06T02:00:46;13.30;;;7.30;;
37409;SDS011;23275;48.914;12.566;2024-03-06T02:03:13;13.75;;;7.68;;
37409;SDS011;23275;48.914;12.566;2024-03-06T02:05:39;13.57;;;8.40;;
37409;SDS011;23275;48.914;12.566;2024-03-06T02:08:06;13.38;;;6.95;;
37409;SDS011;23275;48.914;12.566;2024-03-06T02:10:32;17.42;;;8.50;;
37409;SDS011;23275;48.914;12.566;2024-03-06T02:12:59;14.82;;;8.88;;
37409;SDS011;23275;48.914;12.566;2024-03-06T02:15:25;15.55;;;8.45;;
37409;SDS011;23275;48.914;12.566;2024-03-06T02:17:51;17.80;;;8.45;;
37409;SDS011;23275;48.914;12.566;2024-03-06T02:20:21;18.45;;;8.18;;
37409;SDS011;23275;48.914;12.566;2024-03-06T02:22:49;18.00;;;8.23;;
37409;SDS011;23275;48.914;12.566;2024-03-06T02:25:15;15.00;;;7.40;;
37409;SDS011;23275;48.914;12.566;2024-03-06T02:27:42;16.40;;;8.45;;
37409;SDS011;23275;48.914;12.566;2024-03-06T02:30:08;17.40;;;8.35;;
37409;SDS011;23275;48.914;12.566;2024-03-06T02:32:34;16.02;;;8.80;;
37409;SDS011;23275;48.914;12.566;2024-03-06T02:35:00;20.27;;;7.60;;
37409;SDS011;23275;48.914;12.566;2024-03-06T02:37:28;16.30;;;7.22;;
37409;SDS011;23275;48.914;12.566;2024-03-06T02:39:53;19.38;;;7.40;;
37409;SDS011;23275;48.914;12.566;2024-03-06T02:42:19;12.77;;;7.65;;
37409;SDS011;23275;48.914;12.566;2024-03-06T02:44:45;12.98;;;7.25;;
37409;SDS011;23275;48.914;12.566;2024-03-06T02:47:10;16.42;;;7.55;;
37409;SDS011;23275;48.914;12.566;2024-03-06T02:49:36;19.77;;;9.43;;
37409;SDS011;23275;48.914;12.566;2024-03-06T02:52:01;25.50;;;11.05;;
37409;SDS011;23275;48.914;12.566;2024-03-06T02:54:27;21.65;;;10.23;;
37409;SDS011;23275;48.914;12.566;2024-03-06T02:56:53;23.40;;;10.23;;
37409;SDS011;23275;48.914;12.566;2024-03-06T02:59:18;21.40;;;9.73;;
37409;SDS011;23275;48.914;12.566;2024-03-06T03:01:44;23.27;;;10.63;;
37409;SDS011;23275;48.914;12.566;2024-03-06T03:04:10;24.65;;;10.25;;
37409;SDS011;23275;48.914;12.566;2024-03-06T03:06:36;27.83;;;12.27;;
37409;SDS011;23275;48.914;12.566;2024-03-06T03:09:01;29.50;;;13.35;;
37409;SDS011;23275;48.914;12.566;2024-03-06T03:11:29;29.13;;;13.13;;
37409;SDS011;23275;48.914;12.566;2024-03-06T03:13:56;28.42;;;13.68;;
37409;SDS011;23275;48.914;12.566;2024-03-06T03:16:22;34.95;;;13.98;;
37409;SDS011;23275;48.914;12.566;2024-03-06T03:18:48;41.53;;;17.05;;
37409;SDS011;23275;48.914;12.566;2024-03-06T03:21:14;41.42;;;17.92;;
37409;SDS011;23275;48.914;12.566;2024-03-06T03:23:40;45.22;;;17.52;;
37409;SDS011;23275;48.914;12.566;2024-03-06T03:26:09;51.22;;;19.23;;
37409;SDS011;23275;48.914;12.566;2024-03-06T03:28:38;48.55;;;18.48;;
37409;SDS011;23275;48.914;12.566;2024-03-06T03:31:05;56.70;;;21.30;;
37409;SDS011;23275;48.914;12.566;2024-03-06T03:33:34;62.15;;;23.30;;
37409;SDS011;23275;48.914;12.566;2024-03-06T03:36:04;54.70;;;20.73;;
37409;SDS011;23275;48.914;12.566;2024-03-06T03:38:32;55.00;;;21.80;;
37409;SDS011;23275;48.914;12.566;2024-03-06T03:41:00;54.08;;;20.77;;
37409;SDS011;23275;48.914;12.566;2024-03-06T03:43:28;58.17;;;20.50;;
37409;SDS011;23275;48.914;12.566;2024-03-06T03:45:54;60.80;;;22.65;;
37409;SDS011;23275;48.914;12.566;2024-03-06T03:48:20;53.08;;;20.00;;
37409;SDS011;23275;48.914;12.566;2024-03-06T03:50:45;52.85;;;19.52;;
37409;SDS011;23275;48.914;12.566;2024-03-06T03:53:11;48.53;;;19.02;;
37409;SDS011;23275;48.914;12.566;2024-03-06T03:55:36;45.08;;;19.60;;
37409;SDS011;23275;48.914;12.566;2024-03-06T03:58:02;57.80;;;21.25;;
37409;SDS011;23275;48.914;12.566;2024-03-06T04:00:29;49.17;;;20.30;;
37409;SDS011;23275;48.914;12.566;2024-03-06T04:02:55;51.00;;;20.08;;
37409;SDS011;23275;48.914;12.566;2024-03-06T04:05:22;51.63;;;20.60;;
37409;SDS011;23275;48.914;12.566;2024-03-06T04:07:48;57.13;;;21.27;;
37409;SDS011;23275;48.914;12.566;2024-03-06T04:10:13;56.47;;;23.73;;
37409;SDS011;23275;48.914;12.566;2024-03-06T04:12:39;58.13;;;21.40;;
37409;SDS011;23275;48.914;12.566;2024-03-06T04:15:05;60.17;;;21.50;;
37409;SDS011;23275;48.914;12.566;2024-03-06T04:17:31;52.88;;;19.75;;
37409;SDS011;23275;48.914;12.566;2024-03-06T04:19:56;53.97;;;19.92;;
37409;SDS011;23275;48.914;12.566;2024-03-06T04:22:22;51.95;;;20.80;;
37409;SDS011;23275;48.914;12.566;2024-03-06T04:24:47;53.67;;;21.60;;
37409;SDS011;23275;48.914;12.566;2024-03-06T04:27:13;53.22;;;20.35;;
37409;SDS011;23275;48.914;12.566;2024-03-06T04:29:39;48.10;;;19.33;;
37409;SDS011;23275;48.914;12.566;2024-03-06T04:32:04;43.80;;;18.63;;
37409;SDS011;23275;48.914;12.566;2024-03-06T04:34:30;44.80;;;17.23;;
37409;SDS011;23275;48.914;12.566;2024-03-06T04:36:55;45.13;;;17.80;;
37409;SDS011;23275;48.914;12.566;2024-03-06T04:39:21;37.67;;;17.02;;
37409;SDS011;23275;48.914;12.566;2024-03-06T04:41:47;41.92;;;16.60;;
37409;SDS011;23275;48.914;12.566;2024-03-06T04:44:13;33.20;;;14.73;;
37409;SDS011;23275;48.914;12.566;2024-03-06T04:46:38;35.78;;;16.33;;
37409;SDS011;23275;48.914;12.566;2024-03-06T04:49:04;36.58;;;16.27;;
37409;SDS011;23275;48.914;12.566;2024-03-06T04:51:29;34.63;;;15.60;;
37409;SDS011;23275;48.914;12.566;2024-03-06T04:53:55;34.13;;;15.38;;
37409;SDS011;23275;48.914;12.566;2024-03-06T04:56:20;36.35;;;15.73;;
37409;SDS011;23275;48.914;12.566;2024-03-06T04:58:47;35.33;;;16.25;;
37409;SDS011;23275;48.914;12.566;2024-03-06T05:01:12;37.53;;;15.73;;
37409;SDS011;23275;48.914;12.566;2024-03-06T05:03:38;33.53;;;14.75;;
37409;SDS011;23275;48.914;12.566;2024-03-06T05:06:04;38.20;;;15.77;;
37409;SDS011;23275;48.914;12.566;2024-03-06T05:08:30;36.10;;;15.15;;
37409;SDS011;23275;48.914;12.566;2024-03-06T05:10:56;39.97;;;16.20;;
37409;SDS011;23275;48.914;12.566;2024-03-06T05:13:22;40.70;;;17.05;;
37409;SDS011;23275;48.914;12.566;2024-03-06T05:15:48;40.80;;;16.27;;
37409;SDS011;23275;48.914;12.566;2024-03-06T05:18:13;43.88;;;16.95;;
37409;SDS011;23275;48.914;12.566;2024-03-06T05:20:39;34.10;;;15.18;;
37409;SDS011;23275;48.914;12.566;2024-03-06T05:23:05;34.03;;;14.27;;
37409;SDS011;23275;48.914;12.566;2024-03-06T05:25:31;33.45;;;13.43;;
37409;SDS011;23275;48.914;12.566;2024-03-06T05:27:56;33.33;;;14.23;;
37409;SDS011;23275;48.914;12.566;2024-03-06T05:30:22;31.92;;;13.93;;
37409;SDS011;23275;48.914;12.566;2024-03-06T05:32:47;37.42;;;14.90;;
37409;SDS011;23275;48.914;12.566;2024-03-06T05:35:13;31.38;;;14.38;;
37409;SDS011;23275;48.914;12.566;2024-03-06T05:37:38;29.95;;;14.15;;
37409;SDS011;23275;48.914;12.566;2024-03-06T05:40:04;35.10;;;14.15;;
37409;SDS011;23275;48.914;12.566;2024-03-06T05:42:30;30.67;;;14.55;;
37409;SDS011;23275;48.914;12.566;2024-03-06T05:44:57;33.10;;;15.63;;
37409;SDS011;23275;48.914;12.566;2024-03-06T05:47:25;30.42;;;14.15;;
37409;SDS011;23275;48.914;12.566;2024-03-06T05:49:51;31.20;;;13.43;;
37409;SDS011;23275;48.914;12.566;2024-03-06T05:52:17;35.85;;;14.43;;
37409;SDS011;23275;48.914;12.566;2024-03-06T05:54:43;28.42;;;13.40;;
37409;SDS011;23275;48.914;12.566;2024-03-06T05:57:08;31.92;;;13.75;;
37409;SDS011;23275;48.914;12.566;2024-03-06T05:59:34;33.17;;;14.10;;
37409;SDS011;23275;48.914;12.566;2024-03-06T06:02:00;31.90;;;13.43;;
37409;SDS011;23275;48.914;12.566;2024-03-06T06:04:25;34.60;;;14.95;;
37409;SDS011;23275;48.914;12.566;2024-03-06T06:06:51;32.15;;;13.75;;
37409;SDS011;23275;48.914;12.566;2024-03-06T06:09:17;34.70;;;14.82;;
37409;SDS011;23275;48.914;12.566;2024-03-06T06:11:43;36.33;;;15.27;;
37409;SDS011;23275;48.914;12.566;2024-03-06T06:14:09;37.78;;;14.65;;
37409;SDS011;23275;48.914;12.566;2024-03-06T06:16:36;37.60;;;14.98;;
37409;SDS011;23275;48.914;12.566;2024-03-06T06:19:02;40.13;;;15.18;;
37409;SDS011;23275;48.914;12.566;2024-03-06T06:21:29;36.00;;;15.13;;
37409;SDS011;23275;48.914;12.566;2024-03-06T06:23:55;33.85;;;14.77;;
37409;SDS011;23275;48.914;12.566;2024-03-06T06:26:21;31.80;;;13.55;;
37409;SDS011;23275;48.914;12.566;2024-03-06T06:28:46;25.85;;;13.45;;
37409;SDS011;23275;48.914;12.566;2024-03-06T06:31:12;31.23;;;13.05;;
37409;SDS011;23275;48.914;12.566;2024-03-06T06:33:38;23.65;;;12.00;;
37409;SDS011;23275;48.914;12.566;2024-03-06T06:36:03;26.60;;;11.82;;
37409;SDS011;23275;48.914;12.566;2024-03-06T06:38:29;23.38;;;9.88;;
37409;SDS011;23275;48.914;12.566;2024-03-06T06:40:55;19.25;;;9.90;;
37409;SDS011;23275;48.914;12.566;2024-03-06T06:43:21;23.20;;;10.13;;
37409;SDS011;23275;48.914;12.566;2024-03-06T06:45:46;20.02;;;9.48;;
37409;SDS011;23275;48.914;12.566;2024-03-06T06:48:12;19.33;;;8.93;;
37409;SDS011;23275;48.914;12.566;2024-03-06T06:50:38;20.23;;;9.60;;
37409;SDS011;23275;48.914;12.566;2024-03-06T06:53:04;19.08;;;9.45;;
37409;SDS011;23275;48.914;12.566;2024-03-06T06:55:30;21.60;;;10.80;;
37409;SDS011;23275;48.914;12.566;2024-03-06T06:57:56;20.58;;;10.05;;
37409;SDS011;23275;48.914;12.566;2024-03-06T07:00:22;24.20;;;11.02;;
37409;SDS011;23275;48.914;12.566;2024-03-06T07:02:49;20.48;;;10.77;;
37409;SDS011;23275;48.914;12.566;2024-03-06T07:05:15;21.17;;;10.95;;
37409;SDS011;23275;48.914;12.566;2024-03-06T07:07:41;21.00;;;10.68;;
37409;SDS011;23275;48.914;12.566;2024-03-06T07:10:07;21.13;;;10.55;;
37409;SDS011;23275;48.914;12.566;2024-03-06T07:12:35;22.63;;;10.60;;
37409;SDS011;23275;48.914;12.566;2024-03-06T07:15:01;20.13;;;10.43;;
37409;SDS011;23275;48.914;12.566;2024-03-06T07:17:30;22.63;;;12.60;;
37409;SDS011;23275;48.914;12.566;2024-03-06T07:19:56;22.05;;;11.45;;
37409;SDS011;23275;48.914;12.566;2024-03-06T07:22:21;26.25;;;12.70;;
37409;SDS011;23275;48.914;12.566;2024-03-06T07:24:47;24.98;;;11.93;;
37409;SDS011;23275;48.914;12.566;2024-03-06T07:27:13;21.00;;;10.68;;
37409;SDS011;23275;48.914;12.566;2024-03-06T07:29:39;22.38;;;10.90;;
37409;SDS011;23275;48.914;12.566;2024-03-06T07:32:05;21.02;;;10.48;;
37409;SDS011;23275;48.914;12.566;2024-03-06T07:34:31;19.00;;;9.75;;
37409;SDS011;23275;48.914;12.566;2024-03-06T07:36:56;22.05;;;11.30;;
37409;SDS011;23275;48.914;12.566;2024-03-06T07:39:24;15.93;;;9.57;;
37409;SDS011;23275;48.914;12.566;2024-03-06T07:41:50;18.15;;;9.68;;
37409;SDS011;23275;48.914;12.566;2024-03-06T07:44:15;19.70;;;9.73;;
37409;SDS011;23275;48.914;12.566;2024-03-06T07:46:41;20.45;;;11.27;;
37409;SDS011;23275;48.914;12.566;2024-03-06T07:49:07;19.38;;;9.63;;
37409;SDS011;23275;48.914;12.566;2024-03-06T07:51:33;23.20;;;10.32;;
37409;SDS011;23275;48.914;12.566;2024-03-06T07:54:00;21.90;;;10.65;;
37409;SDS011;23275;48.914;12.566;2024-03-06T07:56:29;23.80;;;11.20;;
37409;SDS011;23275;48.914;12.566;2024-03-06T07:58:54;20.10;;;10.35;;
37409;SDS011;23275;48.914;12.566;2024-03-06T08:01:20;22.20;;;11.30;;
37409;SDS011;23275;48.914;12.566;2024-03-06T08:03:46;23.55;;;11.88;;
37409;SDS011;23275;48.914;12.566;2024-03-06T08:06:12;20.33;;;11.20;;
37409;SDS011;23275;48.914;12.566;2024-03-06T08:08:41;23.92;;;11.27;;
37409;SDS011;23275;48.914;12.566;2024-03-06T08:11:09;22.23;;;12.00;;
37409;SDS011;23275;48.914;12.566;2024-03-06T08:13:36;21.70;;;11.38;;
37409;SDS011;23275;48.914;12.566;2024-03-06T08:16:02;20.70;;;10.18;;
37409;SDS011;23275;48.914;12.566;2024-03-06T08:18:29;21.50;;;10.73;;
37409;SDS011;23275;48.914;12.566;2024-03-06T08:20:55;25.00;;;12.27;;
37409;SDS011;23275;48.914;12.566;2024-03-06T08:23:21;20.23;;;10.98;;
37409;SDS011;23275;48.914;12.566;2024-03-06T08:25:48;21.52;;;10.93;;
37409;SDS011;23275;48.914;12.566;2024-03-06T08:28:14;20.42;;;10.73;;
37409;SDS011;23275;48.914;12.566;2024-03-06T08:30:39;20.25;;;10.30;;
37409;SDS011;23275;48.914;12.566;2024-03-06T08:33:05;20.45;;;10.40;;
37409;SDS011;23275;48.914;12.566;2024-03-06T08:35:30;22.80;;;10.43;;
37409;SDS011;23275;48.914;12.566;2024-03-06T08:37:56;19.45;;;10.23;;
37409;SDS011;23275;48.914;12.566;2024-03-06T08:40:22;23.52;;;11.05;;
37409;SDS011;23275;48.914;12.566;2024-03-06T08:42:48;20.35;;;10.48;;
37409;SDS011;23275;48.914;12.566;2024-03-06T08:45:14;20.85;;;11.32;;
37409;SDS011;23275;48.914;12.566;2024-03-06T08:47:41;22.15;;;11.07;;
37409;SDS011;23275;48.914;12.566;2024-03-06T08:50:07;24.67;;;11.25;;
37409;SDS011;23275;48.914;12.566;2024-03-06T08:52:33;21.38;;;11.07;;
37409;SDS011;23275;48.914;12.566;2024-03-06T08:55:01;22.60;;;10.50;;
37409;SDS011;23275;48.914;12.566;2024-03-06T08:57:31;19.98;;;10.70;;
37409;SDS011;23275;48.914;12.566;2024-03-06T09:00:00;20.35;;;11.13;;
37409;SDS011;23275;48.914;12.566;2024-03-06T09:02:25;22.17;;;11.30;;
37409;SDS011;23275;48.914;12.566;2024-03-06T09:04:51;22.35;;;11.65;;
37409;SDS011;23275;48.914;12.566;2024-03-06T09:07:17;23.45;;;12.00;;
37409;SDS011;23275;48.914;12.566;2024-03-06T09:09:43;26.00;;;12.13;;
37409;SDS011;23275;48.914;12.566;2024-03-06T09:12:10;19.65;;;10.95;;
37409;SDS011;23275;48.914;12.566;2024-03-06T09:14:36;15.63;;;9.77;;
37409;SDS011;23275;48.914;12.566;2024-03-06T09:17:02;18.38;;;10.13;;
37409;SDS011;23275;48.914;12.566;2024-03-06T09:19:29;18.42;;;10.43;;
37409;SDS011;23275;48.914;12.566;2024-03-06T09:21:55;20.60;;;11.32;;
37409;SDS011;23275;48.914;12.566;2024-03-06T09:24:21;18.10;;;10.23;;
37409;SDS011;23275;48.914;12.566;2024-03-06T09:26:51;17.95;;;10.13;;
37409;SDS011;23275;48.914;12.566;2024-03-06T09:29:17;16.55;;;9.77;;
37409;SDS011;23275;48.914;12.566;2024-03-06T09:31:43;17.10;;;10.48;;
37409;SDS011;23275;48.914;12.566;2024-03-06T09:34:10;20.23;;;11.82;;
37409;SDS011;23275;48.914;12.566;2024-03-06T09:36:40;17.27;;;10.77;;
37409;SDS011;23275;48.914;12.566;2024-03-06T09:39:10;18.33;;;9.80;;
37409;SDS011;23275;48.914;12.566;2024-03-06T09:41:44;15.18;;;10.13;;
37409;SDS011;23275;48.914;12.566;2024-03-06T09:44:11;17.35;;;10.90;;
37409;SDS011;23275;48.914;12.566;2024-03-06T09:46:39;18.27;;;10.55;;
37409;SDS011;23275;48.914;12.566;2024-03-06T09:49:09;16.45;;;9.93;;
37409;SDS011;23275;48.914;12.566;2024-03-06T09:51:36;19.05;;;10.38;;
37409;SDS011;23275;48.914;12.566;2024-03-06T09:54:04;17.35;;;10.35;;
37409;SDS011;23275;48.914;12.566;2024-03-06T09:56:32;16.77;;;10.93;;
37409;SDS011;23275;48.914;12.566;2024-03-06T09:58:58;16.02;;;9.75;;
37409;SDS011;23275;48.914;12.566;2024-03-06T10:01:24;17.20;;;10.07;;
37409;SDS011;23275;48.914;12.566;2024-03-06T10:03:50;15.43;;;9.95;;
37409;SDS011;23275;48.914;12.566;2024-03-06T10:06:16;18.45;;;10.43;;
37409;SDS011;23275;48.914;12.566;2024-03-06T10:08:42;14.63;;;9.73;;
37409;SDS011;23275;48.914;12.566;2024-03-06T10:11:09;19.02;;;9.85;;
37409;SDS011;23275;48.914;12.566;2024-03-06T10:13:36;16.20;;;10.40;;
37409;SDS011;23275;48.914;12.566;2024-03-06T10:16:02;15.15;;;9.23;;
37409;SDS011;23275;48.914;12.566;2024-03-06T10:18:30;17.73;;;10.38;;
37409;SDS011;23275;48.914;12.566;2024-03-06T10:20:57;15.20;;;9.90;;
37409;SDS011;23275;48.914;12.566;2024-03-06T10:23:23;15.02;;;9.73;;
37409;SDS011;23275;48.914;12.566;2024-03-06T10:25:50;15.05;;;9.77;;
37409;SDS011;23275;48.914;12.566;2024-03-06T10:28:19;15.30;;;9.10;;
37409;SDS011;23275;48.914;12.566;2024-03-06T10:30:47;14.73;;;8.88;;
37409;SDS011;23275;48.914;12.566;2024-03-06T10:33:13;18.45;;;9.98;;
37409;SDS011;23275;48.914;12.566;2024-03-06T10:35:40;14.13;;;8.95;;
37409;SDS011;23275;48.914;12.566;2024-03-06T10:38:08;14.88;;;9.27;;
37409;SDS011;23275;48.914;12.566;2024-03-06T10:40:35;16.48;;;9.80;;
37409;SDS011;23275;48.914;12.566;2024-03-06T10:43:01;14.60;;;8.80;;
37409;SDS011;23275;48.914;12.566;2024-03-06T10:48:37;15.43;;;9.32;;
37409;SDS011;23275;48.914;12.566;2024-03-06T10:51:05;15.93;;;9.40;;
37409;SDS011;23275;48.914;12.566;2024-03-06T10:53:32;15.07;;;9.60;;
37409;SDS011;23275;48.914;12.566;2024-03-06T10:56:00;13.30;;;8.90;;
37409;SDS011;23275;48.914;12.566;2024-03-06T10:58:28;17.88;;;10.00;;
37409;SDS011;23275;48.914;12.566;2024-03-06T11:00:55;14.13;;;9.05;;
37409;SDS011;23275;48.914;12.566;2024-03-06T11:03:23;14.13;;;8.90;;
37409;SDS011;23275;48.914;12.566;2024-03-06T11:05:51;15.30;;;9.60;;
37409;SDS011;23275;48.914;12.566;2024-03-06T11:08:16;14.75;;;9.20;;
37409;SDS011;23275;48.914;12.566;2024-03-06T11:10:43;13.23;;;8.85;;
37409;SDS011;23275;48.914;12.566;2024-03-06T11:13:24;13.13;;;8.57;;
37409;SDS011;23275;48.914;12.566;2024-03-06T11:15:51;14.57;;;9.10;;
37409;SDS011;23275;48.914;12.566;2024-03-06T11:23:24;15.25;;;9.40;;
37409;SDS011;23275;48.914;12.566;2024-03-06T11:28:23;17.10;;;9.63;;
37409;SDS011;23275;48.914;12.566;2024-03-06T11:30:58;15.43;;;8.95;;
37409;SDS011;23275;48.914;12.566;2024-03-06T11:33:34;14.75;;;8.00;;
37409;SDS011;23275;48.914;12.566;2024-03-06T11:41:22;17.45;;;8.85;;
37409;SDS011;23275;48.914;12.566;2024-03-06T11:43:49;14.90;;;9.05;;
37409;SDS011;23275;48.914;12.566;2024-03-06T11:46:17;15.50;;;8.18;;
37409;SDS011;23275;48.914;12.566;2024-03-06T11:48:44;14.55;;;8.23;;
37409;SDS011;23275;48.914;12.566;2024-03-06T11:51:19;14.40;;;8.02;;
37409;SDS011;23275;48.914;12.566;2024-03-06T11:53:46;17.00;;;8.60;;
37409;SDS011;23275;48.914;12.566;2024-03-06T11:56:14;17.17;;;9.05;;
37409;SDS011;23275;48.914;12.566;2024-03-06T11:58:40;14.68;;;8.80;;
37409;SDS011;23275;48.914;12.566;2024-03-06T12:01:05;15.18;;;8.88;;
37409;SDS011;23275;48.914;12.566;2024-03-06T12:03:31;19.15;;;8.77;;
37409;SDS011;23275;48.914;12.566;2024-03-06T12:05:57;15.60;;;8.65;;
37409;SDS011;23275;48.914;12.566;2024-03-06T12:08:23;14.85;;;7.65;;
37409;SDS011;23275;48.914;12.566;2024-03-06T12:10:49;15.30;;;8.38;;
37409;SDS011;23275;48.914;12.566;2024-03-06T12:13:15;14.82;;;8.57;;
37409;SDS011;23275;48.914;12.566;2024-03-06T12:15:44;15.02;;;8.40;;
37409;SDS011;23275;48.914;12.566;2024-03-06T12:18:10;16.42;;;8.32;;
37409;SDS011;23275;48.914;12.566;2024-03-06T12:20:42;15.48;;;8.50;;
37409;SDS011;23275;48.914;12.566;2024-03-06T12:23:18;15.63;;;8.65;;
37409;SDS011;23275;48.914;12.566;2024-03-06T12:25:48;17.48;;;9.55;;
37409;SDS011;23275;48.914;12.566;2024-03-06T12:28:14;13.70;;;7.72;;
37409;SDS011;23275;48.914;12.566;2024-03-06T12:30:40;14.57;;;8.02;;
37409;SDS011;23275;48.914;12.566;2024-03-06T12:33:07;14.82;;;8.30;;
37409;SDS011;23275;48.914;12.566;2024-03-06T12:35:34;14.68;;;7.95;;
37409;SDS011;23275;48.914;12.566;2024-03-06T12:38:00;14.57;;;8.30;;
37409;SDS011;23275;48.914;12.566;2024-03-06T12:40:37;16.08;;;8.00;;
37409;SDS011;23275;48.914;12.566;2024-03-06T12:43:03;17.08;;;9.00;;
37409;SDS011;23275;48.914;12.566;2024-03-06T12:45:29;16.13;;;9.32;;
37409;SDS011;23275;48.914;12.566;2024-03-06T12:47:54;14.32;;;8.25;;
37409;SDS011;23275;48.914;12.566;2024-03-06T12:50:20;15.35;;;8.57;;
37409;SDS011;23275;48.914;12.566;2024-03-06T12:52:46;16.20;;;8.48;;
37409;SDS011;23275;48.914;12.566;2024-03-06T12:55:12;16.35;;;7.68;;
37409;SDS011;23275;48.914;12.566;2024-03-06T12:57:38;14.65;;;8.15;;
37409;SDS011;23275;48.914;12.566;2024-03-06T13:00:04;20.77;;;8.35;;
37409;SDS011;23275;48.914;12.566;2024-03-06T13:02:39;14.68;;;7.90;;
37409;SDS011;23275;48.914;12.566;2024-03-06T13:05:04;14.82;;;8.57;;
37409;SDS011;23275;48.914;12.566;2024-03-06T13:07:30;15.00;;;9.00;;
37409;SDS011;23275;48.914;12.566;2024-03-06T13:09:55;15.43;;;8.45;;
37409;SDS011;23275;48.914;12.566;2024-03-06T13:12:21;17.17;;;8.75;;
37409;SDS011;23275;48.914;12.566;2024-03-06T13:14:47;16.77;;;8.73;;
37409;SDS011;23275;48.914;12.566;2024-03-06T13:17:13;13.38;;;7.47;;
37409;SDS011;23275;48.914;12.566;2024-03-06T13:19:38;14.52;;;8.20;;
37409;SDS011;23275;48.914;12.566;2024-03-06T13:22:04;14.02;;;8.02;;
37409;SDS011;23275;48.914;12.566;2024-03-06T13:24:31;13.80;;;7.18;;
37409;SDS011;23275;48.914;12.566;2024-03-06T13:26:58;14.77;;;7.72;;
37409;SDS011;23275;48.914;12.566;2024-03-06T13:29:24;14.57;;;8.02;;
37409;SDS011;23275;48.914;12.566;2024-03-06T13:31:50;15.02;;;8.43;;
37409;SDS011;23275;48.914;12.566;2024-03-06T13:34:15;14.85;;;8.25;;
37409;SDS011;23275;48.914;12.566;2024-03-06T13:36:41;13.55;;;8.38;;
37409;SDS011;23275;48.914;12.566;2024-03-06T13:39:08;13.38;;;7.50;;
37409;SDS011;23275;48.914;12.566;2024-03-06T13:41:34;14.85;;;8.70;;
37409;SDS011;23275;48.914;12.566;2024-03-06T13:43:59;16.95;;;8.00;;
37409;SDS011;23275;48.914;12.566;2024-03-06T13:46:28;14.90;;;8.20;;
37409;SDS011;23275;48.914;12.566;2024-03-06T13:48:54;15.50;;;7.85;;
37409;SDS011;23275;48.914;12.566;2024-03-06T13:51:19;15.35;;;8.02;;
37409;SDS011;23275;48.914;12.566;2024-03-06T13:53:45;14.57;;;8.02;;
37409;SDS011;23275;48.914;12.566;2024-03-06T13:56:11;19.95;;;9.02;;
37409;SDS011;23275;48.914;12.566;2024-03-06T13:58:37;14.02;;;7.72;;
37409;SDS011;23275;48.914;12.566;2024-03-06T14:01:03;14.60;;;8.10;;
37409;SDS011;23275;48.914;12.566;2024-03-06T14:03:30;13.80;;;7.32;;
37409;SDS011;23275;48.914;12.566;2024-03-06T14:05:58;14.88;;;7.97;;
37409;SDS011;23275;48.914;12.566;2024-03-06T14:08:24;13.65;;;7.70;;
37409;SDS011;23275;48.914;12.566;2024-03-06T14:10:50;15.75;;;7.82;;
37409;SDS011;23275;48.914;12.566;2024-03-06T14:13:16;15.63;;;8.02;;
37409;SDS011;23275;48.914;12.566;2024-03-06T14:15:41;16.92;;;8.30;;
37409;SDS011;23275;48.914;12.566;2024-03-06T14:18:07;15.32;;;8.23;;
37409;SDS011;23275;48.914;12.566;2024-03-06T14:20:33;18.20;;;8.82;;
37409;SDS011;23275;48.914;12.566;2024-03-06T14:22:59;19.55;;;9.63;;
37409;SDS011;23275;48.914;12.566;2024-03-06T14:25:24;16.67;;;8.13;;
37409;SDS011;23275;48.914;12.566;2024-03-06T14:27:51;18.88;;;9.38;;